sensor_id;sensor_type;location;lat;lon;timestamp;P1;durP1;ratioP1;P2;durP2;ratioP2
3643;SDS011;1838;50.742;7.158;2023-04-24T00:01:13;1.70;;;1.00;;
3643;SDS011;1838;50.742;7.158;2023-04-24T00:03:40;1.70;;;0.70;;
3643;SDS011;1838;50.742;7.158;2023-04-24T00:06:06;1.60;;;0.93;;
3643;SDS011;1838;50.742;7.158;2023-04-24T00:08:33;2.47;;;0.80;;
3643;SDS011;1838;50.742;7.158;2023-04-24T00:11:01;1.70;;;0.97;;
3643;SDS011;1838;50.742;7.158;2023-04-24T00:13:27;2.90;;;0.90;;
3643;SDS011;1838;50.742;7.158;2023-04-24T00:15:53;1.70;;;0.90;;
3643;SDS011;1838;50.742;7.158;2023-04-24T00:18:19;1.50;;;0.80;;
3643;SDS011;1838;50.742;7.158;2023-04-24T00:20:45;1.30;;;0.70;;
3643;SDS011;1838;50.742;7.158;2023-04-24T00:23:11;1.70;;;1.00;;
3643;SDS011;1838;50.742;7.158;2023-04-24T00:25:37;2.63;;;1.53;;
3643;SDS011;1838;50.742;7.158;2023-04-24T00:28:03;2.00;;;0.90;;
3643;SDS011;1838;50.742;7.158;2023-04-24T00:30:28;2.20;;;0.83;;
3643;SDS011;1838;50.742;7.158;2023-04-24T00:32:54;1.60;;;0.80;;
3643;SDS011;1838;50.742;7.158;2023-04-24T00:35:19;1.40;;;0.80;;
3643;SDS011;1838;50.742;7.158;2023-04-24T00:37:45;1.50;;;0.70;;
3643;SDS011;1838;50.742;7.158;2023-04-24T00:40:11;1.40;;;0.77;;
3643;SDS011;1838;50.742;7.158;2023-04-24T00:42:36;1.73;;;0.80;;
3643;SDS011;1838;50.742;7.158;2023-04-24T00:45:02;1.60;;;0.70;;
3643;SDS011;1838;50.742;7.158;2023-04-24T00:47:29;1.40;;;0.77;;
3643;SDS011;1838;50.742;7.158;2023-04-24T00:49:55;1.83;;;1.00;;
3643;SDS011;1838;50.742;7.158;2023-04-24T00:52:21;2.73;;;0.90;;
3643;SDS011;1838;50.742;7.158;2023-04-24T00:54:49;3.10;;;0.83;;
3643;SDS011;1838;50.742;7.158;2023-04-24T00:57:15;3.50;;;0.90;;
3643;SDS011;1838;50.742;7.158;2023-04-24T00:59:41;2.60;;;0.73;;
3643;SDS011;1838;50.742;7.158;2023-04-24T01:02:07;1.37;;;0.80;;
3643;SDS011;1838;50.742;7.158;2023-04-24T01:04:35;1.50;;;0.80;;
3643;SDS011;1838;50.742;7.158;2023-04-24T01:07:01;1.50;;;0.80;;
3643;SDS011;1838;50.742;7.158;2023-04-24T01:09:27;2.60;;;0.70;;
3643;SDS011;1838;50.742;7.158;2023-04-24T01:11:53;3.03;;;0.80;;
3643;SDS011;1838;50.742;7.158;2023-04-24T01:14:19;3.80;;;1.00;;
3643;SDS011;1838;50.742;7.158;2023-04-24T01:16:45;1.40;;;0.70;;
3643;SDS011;1838;50.742;7.158;2023-04-24T01:19:11;1.40;;;0.80;;
3643;SDS011;1838;50.742;7.158;2023-04-24T01:21:37;1.33;;;0.67;;
3643;SDS011;1838;50.742;7.158;2023-04-24T01:24:04;1.80;;;0.70;;
3643;SDS011;1838;50.742;7.158;2023-04-24T01:26:30;2.57;;;0.90;;
3643;SDS011;1838;50.742;7.158;2023-04-24T01:28:56;1.50;;;0.70;;
3643;SDS011;1838;50.742;7.158;2023-04-24T01:31:22;1.40;;;0.80;;
3643;SDS011;1838;50.742;7.158;2023-04-24T01:33:48;1.73;;;1.10;;
3643;SDS011;1838;50.742;7.158;2023-04-24T01:36:14;3.53;;;1.13;;
3643;SDS011;1838;50.742;7.158;2023-04-24T01:38:41;1.80;;;1.50;;
3643;SDS011;1838;50.742;7.158;2023-04-24T01:41:07;2.20;;;1.47;;
3643;SDS011;1838;50.742;7.158;2023-04-24T01:43:32;2.60;;;1.67;;
3643;SDS011;1838;50.742;7.158;2023-04-24T01:45:58;2.37;;;1.83;;
3643;SDS011;1838;50.742;7.158;2023-04-24T01:48:24;1.90;;;1.50;;
3643;SDS011;1838;50.742;7.158;2023-04-24T01:50:49;2.33;;;1.47;;
3643;SDS011;1838;50.742;7.158;2023-04-24T01:53:15;2.40;;;1.60;;
3643;SDS011;1838;50.742;7.158;2023-04-24T01:55:40;3.70;;;1.57;;
3643;SDS011;1838;50.742;7.158;2023-04-24T01:58:06;2.93;;;1.80;;
3643;SDS011;1838;50.742;7.158;2023-04-24T02:00:31;2.90;;;2.23;;
3643;SDS011;1838;50.742;7.158;2023-04-24T02:02:57;2.67;;;1.97;;
3643;SDS011;1838;50.742;7.158;2023-04-24T02:05:22;2.50;;;1.60;;
3643;SDS011;1838;50.742;7.158;2023-04-24T02:07:50;2.10;;;1.53;;
3643;SDS011;1838;50.742;7.158;2023-04-24T02:10:16;2.87;;;2.03;;
3643;SDS011;1838;50.742;7.158;2023-04-24T02:12:42;2.33;;;1.60;;
3643;SDS011;1838;50.742;7.158;2023-04-24T02:15:07;5.30;;;1.60;;
3643;SDS011;1838;50.742;7.158;2023-04-24T02:17:33;2.53;;;1.73;;
3643;SDS011;1838;50.742;7.158;2023-04-24T02:19:59;5.33;;;1.90;;
3643;SDS011;1838;50.742;7.158;2023-04-24T02:22:24;3.07;;;2.63;;
3643;SDS011;1838;50.742;7.158;2023-04-24T02:55:09;4.37;;;3.97;;
3643;SDS011;1838;50.742;7.158;2023-04-24T02:57:34;5.93;;;4.20;;
3643;SDS011;1838;50.742;7.158;2023-04-24T03:00:00;5.30;;;3.77;;
3643;SDS011;1838;50.742;7.158;2023-04-24T03:02:25;6.10;;;4.70;;
3643;SDS011;1838;50.742;7.158;2023-04-24T03:04:51;5.37;;;4.10;;
3643;SDS011;1838;50.742;7.158;2023-04-24T03:07:16;4.40;;;3.83;;
3643;SDS011;1838;50.742;7.158;2023-04-24T03:09:45;7.43;;;4.40;;
3643;SDS011;1838;50.742;7.158;2023-04-24T03:12:11;5.77;;;4.57;;
3643;SDS011;1838;50.742;7.158;2023-04-24T03:14:37;6.90;;;5.27;;
3643;SDS011;1838;50.742;7.158;2023-04-24T03:17:02;7.70;;;4.80;;
3643;SDS011;1838;50.742;7.158;2023-04-24T03:19:27;5.23;;;4.37;;
3643;SDS011;1838;50.742;7.158;2023-04-24T03:21:53;9.23;;;4.97;;
3643;SDS011;1838;50.742;7.158;2023-04-24T03:24:18;6.30;;;4.83;;
3643;SDS011;1838;50.742;7.158;2023-04-24T03:26:45;8.63;;;5.57;;
3643;SDS011;1838;50.742;7.158;2023-04-24T03:29:11;7.60;;;4.97;;
3643;SDS011;1838;50.742;7.158;2023-04-24T03:31:36;5.80;;;4.93;;
3643;SDS011;1838;50.742;7.158;2023-04-24T03:34:02;5.93;;;5.33;;
3643;SDS011;1838;50.742;7.158;2023-04-24T03:36:27;8.43;;;4.97;;
3643;SDS011;1838;50.742;7.158;2023-04-24T03:38:53;10.47;;;5.47;;
3643;SDS011;1838;50.742;7.158;2023-04-24T03:41:18;7.43;;;5.93;;
3643;SDS011;1838;50.742;7.158;2023-04-24T03:43:44;6.33;;;5.27;;
3643;SDS011;1838;50.742;7.158;2023-04-24T03:46:10;7.47;;;5.30;;
3643;SDS011;1838;50.742;7.158;2023-04-24T03:48:35;5.23;;;4.70;;
3643;SDS011;1838;50.742;7.158;2023-04-24T03:51:01;5.33;;;4.80;;
3643;SDS011;1838;50.742;7.158;2023-04-24T03:53:26;6.47;;;5.40;;
3643;SDS011;1838;50.742;7.158;2023-04-24T03:55:52;9.37;;;5.43;;
3643;SDS011;1838;50.742;7.158;2023-04-24T03:58:18;8.17;;;4.93;;
3643;SDS011;1838;50.742;7.158;2023-04-24T04:00:43;6.10;;;4.63;;
3643;SDS011;1838;50.742;7.158;2023-04-24T04:03:09;6.63;;;5.50;;
3643;SDS011;1838;50.742;7.158;2023-04-24T04:05:35;5.87;;;5.07;;
3643;SDS011;1838;50.742;7.158;2023-04-24T04:08:00;10.00;;;4.97;;
3643;SDS011;1838;50.742;7.158;2023-04-24T04:10:26;5.20;;;4.70;;
3643;SDS011;1838;50.742;7.158;2023-04-24T04:12:51;6.97;;;4.70;;
3643;SDS011;1838;50.742;7.158;2023-04-24T04:15:17;6.60;;;5.10;;
3643;SDS011;1838;50.742;7.158;2023-04-24T04:17:42;5.73;;;5.10;;
3643;SDS011;1838;50.742;7.158;2023-04-24T04:20:08;8.93;;;5.57;;
3643;SDS011;1838;50.742;7.158;2023-04-24T04:22:35;6.23;;;4.10;;
3643;SDS011;1838;50.742;7.158;2023-04-24T04:25:01;6.70;;;5.10;;
3643;SDS011;1838;50.742;7.158;2023-04-24T04:27:27;6.57;;;5.20;;
3643;SDS011;1838;50.742;7.158;2023-04-24T04:29:54;6.73;;;5.30;;
3643;SDS011;1838;50.742;7.158;2023-04-24T04:32:21;5.97;;;5.07;;
3643;SDS011;1838;50.742;7.158;2023-04-24T04:34:47;7.27;;;5.60;;
3643;SDS011;1838;50.742;7.158;2023-04-24T04:37:15;10.53;;;5.03;;
3643;SDS011;1838;50.742;7.158;2023-04-24T04:39:44;10.97;;;5.97;;
3643;SDS011;1838;50.742;7.158;2023-04-24T04:42:09;8.17;;;5.63;;
3643;SDS011;1838;50.742;7.158;2023-04-24T04:44:35;7.20;;;5.40;;
3643;SDS011;1838;50.742;7.158;2023-04-24T04:47:01;9.67;;;5.20;;
3643;SDS011;1838;50.742;7.158;2023-04-24T04:49:30;10.00;;;5.87;;
3643;SDS011;1838;50.742;7.158;2023-04-24T04:51:56;7.70;;;5.67;;
3643;SDS011;1838;50.742;7.158;2023-04-24T04:54:22;7.27;;;5.67;;
3643;SDS011;1838;50.742;7.158;2023-04-24T04:56:49;7.07;;;5.47;;
3643;SDS011;1838;50.742;7.158;2023-04-24T04:59:15;7.80;;;5.50;;
3643;SDS011;1838;50.742;7.158;2023-04-24T05:01:41;7.57;;;5.50;;
3643;SDS011;1838;50.742;7.158;2023-04-24T05:04:07;8.80;;;5.47;;
3643;SDS011;1838;50.742;7.158;2023-04-24T05:06:32;7.60;;;5.30;;
3643;SDS011;1838;50.742;7.158;2023-04-24T05:08:58;7.53;;;5.60;;
3643;SDS011;1838;50.742;7.158;2023-04-24T05:11:23;10.00;;;6.27;;
3643;SDS011;1838;50.742;7.158;2023-04-24T05:13:49;6.97;;;5.20;;
3643;SDS011;1838;50.742;7.158;2023-04-24T05:16:14;8.70;;;5.87;;
3643;SDS011;1838;50.742;7.158;2023-04-24T05:18:40;6.67;;;5.50;;
3643;SDS011;1838;50.742;7.158;2023-04-24T05:21:06;6.33;;;5.40;;
3643;SDS011;1838;50.742;7.158;2023-04-24T05:23:31;5.93;;;4.83;;
3643;SDS011;1838;50.742;7.158;2023-04-24T05:25:57;7.40;;;5.20;;
3643;SDS011;1838;50.742;7.158;2023-04-24T05:28:22;10.90;;;5.03;;
3643;SDS011;1838;50.742;7.158;2023-04-24T05:30:48;6.10;;;4.82;;
3643;SDS011;1838;50.742;7.158;2023-04-24T05:33:13;8.30;;;5.50;;
3643;SDS011;1838;50.742;7.158;2023-04-24T05:35:40;6.80;;;5.33;;
3643;SDS011;1838;50.742;7.158;2023-04-24T05:38:10;7.43;;;5.60;;
3643;SDS011;1838;50.742;7.158;2023-04-24T05:40:37;7.53;;;6.00;;
3643;SDS011;1838;50.742;7.158;2023-04-24T05:43:02;9.70;;;5.00;;
3643;SDS011;1838;50.742;7.158;2023-04-24T05:45:28;9.57;;;6.07;;
3643;SDS011;1838;50.742;7.158;2023-04-24T05:47:53;7.40;;;5.40;;
3643;SDS011;1838;50.742;7.158;2023-04-24T05:50:20;9.77;;;5.30;;
3643;SDS011;1838;50.742;7.158;2023-04-24T05:52:45;9.93;;;5.80;;
3643;SDS011;1838;50.742;7.158;2023-04-24T05:55:11;7.17;;;5.83;;
3643;SDS011;1838;50.742;7.158;2023-04-24T05:57:36;6.20;;;4.83;;
3643;SDS011;1838;50.742;7.158;2023-04-24T06:00:02;7.97;;;5.80;;
3643;SDS011;1838;50.742;7.158;2023-04-24T06:02:29;12.13;;;5.73;;
3643;SDS011;1838;50.742;7.158;2023-04-24T06:04:57;9.70;;;5.77;;
3643;SDS011;1838;50.742;7.158;2023-04-24T06:07:24;7.07;;;5.70;;
3643;SDS011;1838;50.742;7.158;2023-04-24T06:09:51;10.80;;;6.40;;
3643;SDS011;1838;50.742;7.158;2023-04-24T06:12:17;9.10;;;5.57;;
3643;SDS011;1838;50.742;7.158;2023-04-24T06:14:42;10.33;;;5.47;;
3643;SDS011;1838;50.742;7.158;2023-04-24T06:17:08;8.57;;;5.77;;
3643;SDS011;1838;50.742;7.158;2023-04-24T06:19:34;13.07;;;5.60;;
3643;SDS011;1838;50.742;7.158;2023-04-24T06:21:59;8.57;;;5.57;;
3643;SDS011;1838;50.742;7.158;2023-04-24T06:24:28;7.70;;;6.50;;
3643;SDS011;1838;50.742;7.158;2023-04-24T06:26:53;8.03;;;5.80;;
3643;SDS011;1838;50.742;7.158;2023-04-24T06:29:19;10.67;;;7.07;;
3643;SDS011;1838;50.742;7.158;2023-04-24T06:31:45;10.03;;;6.90;;
3643;SDS011;1838;50.742;7.158;2023-04-24T06:34:10;9.70;;;6.57;;
3643;SDS011;1838;50.742;7.158;2023-04-24T06:36:36;15.63;;;6.10;;
3643;SDS011;1838;50.742;7.158;2023-04-24T06:39:02;6.10;;;5.43;;
3643;SDS011;1838;50.742;7.158;2023-04-24T06:41:27;8.73;;;7.03;;
3643;SDS011;1838;50.742;7.158;2023-04-24T06:43:53;9.70;;;7.30;;
3643;SDS011;1838;50.742;7.158;2023-04-24T06:46:19;11.53;;;5.93;;
3643;SDS011;1838;50.742;7.158;2023-04-24T06:48:48;7.67;;;6.03;;
3643;SDS011;1838;50.742;7.158;2023-04-24T06:51:14;9.50;;;6.80;;
3643;SDS011;1838;50.742;7.158;2023-04-24T06:53:40;6.00;;;5.40;;
3643;SDS011;1838;50.742;7.158;2023-04-24T06:56:05;13.27;;;6.70;;
3643;SDS011;1838;50.742;7.158;2023-04-24T06:58:31;11.50;;;7.10;;
3643;SDS011;1838;50.742;7.158;2023-04-24T07:00:56;14.47;;;5.70;;
3643;SDS011;1838;50.742;7.158;2023-04-24T07:03:22;5.60;;;5.00;;
3643;SDS011;1838;50.742;7.158;2023-04-24T07:05:47;6.70;;;4.57;;
3643;SDS011;1838;50.742;7.158;2023-04-24T07:08:14;8.40;;;4.50;;
3643;SDS011;1838;50.742;7.158;2023-04-24T07:10:42;6.00;;;4.10;;
3643;SDS011;1838;50.742;7.158;2023-04-24T07:13:07;4.67;;;4.20;;
3643;SDS011;1838;50.742;7.158;2023-04-24T07:15:33;5.43;;;4.70;;
3643;SDS011;1838;50.742;7.158;2023-04-24T07:17:59;4.40;;;3.70;;
3643;SDS011;1838;50.742;7.158;2023-04-24T07:20:25;6.60;;;4.30;;
3643;SDS011;1838;50.742;7.158;2023-04-24T07:22:51;8.83;;;4.03;;
3643;SDS011;1838;50.742;7.158;2023-04-24T07:25:18;6.70;;;4.80;;
3643;SDS011;1838;50.742;7.158;2023-04-24T07:27:44;4.50;;;3.60;;
3643;SDS011;1838;50.742;7.158;2023-04-24T07:30:10;4.70;;;4.10;;
3643;SDS011;1838;50.742;7.158;2023-04-24T07:32:36;4.83;;;3.67;;
3643;SDS011;1838;50.742;7.158;2023-04-24T07:35:01;4.77;;;4.37;;
3643;SDS011;1838;50.742;7.158;2023-04-24T07:37:27;8.10;;;4.20;;
3643;SDS011;1838;50.742;7.158;2023-04-24T07:39:53;3.07;;;2.80;;
3643;SDS011;1838;50.742;7.158;2023-04-24T07:42:19;4.87;;;3.63;;
3643;SDS011;1838;50.742;7.158;2023-04-24T07:44:45;4.77;;;2.90;;
3643;SDS011;1838;50.742;7.158;2023-04-24T07:47:12;3.60;;;2.60;;
3643;SDS011;1838;50.742;7.158;2023-04-24T07:49:40;2.47;;;2.10;;
3643;SDS011;1838;50.742;7.158;2023-04-24T07:52:07;3.40;;;2.20;;
3643;SDS011;1838;50.742;7.158;2023-04-24T07:54:32;2.63;;;2.33;;
3643;SDS011;1838;50.742;7.158;2023-04-24T07:56:58;3.70;;;2.50;;
3643;SDS011;1838;50.742;7.158;2023-04-24T07:59:23;2.77;;;2.40;;
3643;SDS011;1838;50.742;7.158;2023-04-24T08:01:49;3.40;;;2.33;;
3643;SDS011;1838;50.742;7.158;2023-04-24T08:04:14;3.30;;;2.33;;
3643;SDS011;1838;50.742;7.158;2023-04-24T08:06:40;3.10;;;2.10;;
3643;SDS011;1838;50.742;7.158;2023-04-24T08:09:05;2.47;;;1.93;;
3643;SDS011;1838;50.742;7.158;2023-04-24T08:11:31;2.57;;;1.80;;
3643;SDS011;1838;50.742;7.158;2023-04-24T08:13:57;2.47;;;1.90;;
3643;SDS011;1838;50.742;7.158;2023-04-24T08:16:23;2.30;;;1.67;;
3643;SDS011;1838;50.742;7.158;2023-04-24T08:18:49;2.47;;;1.50;;
3643;SDS011;1838;50.742;7.158;2023-04-24T08:21:15;2.10;;;1.37;;
3643;SDS011;1838;50.742;7.158;2023-04-24T08:23:42;3.30;;;1.43;;
3643;SDS011;1838;50.742;7.158;2023-04-24T08:26:08;2.40;;;1.50;;
3643;SDS011;1838;50.742;7.158;2023-04-24T08:28:34;4.10;;;1.60;;
3643;SDS011;1838;50.742;7.158;2023-04-24T08:30:59;2.00;;;1.40;;
3643;SDS011;1838;50.742;7.158;2023-04-24T08:33:25;3.07;;;2.10;;
3643;SDS011;1838;50.742;7.158;2023-04-24T08:35:50;3.50;;;1.40;;
3643;SDS011;1838;50.742;7.158;2023-04-24T08:38:16;3.30;;;1.50;;
3643;SDS011;1838;50.742;7.158;2023-04-24T08:40:42;3.27;;;2.00;;
3643;SDS011;1838;50.742;7.158;2023-04-24T08:43:08;2.60;;;1.73;;
3643;SDS011;1838;50.742;7.158;2023-04-24T08:45:35;2.67;;;2.07;;
3643;SDS011;1838;50.742;7.158;2023-04-24T08:48:01;3.70;;;1.87;;
3643;SDS011;1838;50.742;7.158;2023-04-24T08:50:27;3.07;;;2.10;;
3643;SDS011;1838;50.742;7.158;2023-04-24T08:52:54;2.90;;;1.73;;
3643;SDS011;1838;50.742;7.158;2023-04-24T08:55:20;2.10;;;1.50;;
3643;SDS011;1838;50.742;7.158;2023-04-24T08:57:50;2.53;;;1.77;;
3643;SDS011;1838;50.742;7.158;2023-04-24T09:00:18;5.50;;;2.13;;
3643;SDS011;1838;50.742;7.158;2023-04-24T09:02:45;5.80;;;2.00;;
3643;SDS011;1838;50.742;7.158;2023-04-24T09:05:13;5.30;;;2.43;;
3643;SDS011;1838;50.742;7.158;2023-04-24T09:07:41;4.50;;;2.40;;
3643;SDS011;1838;50.742;7.158;2023-04-24T09:10:09;4.33;;;2.43;;
3643;SDS011;1838;50.742;7.158;2023-04-24T09:12:36;5.70;;;2.60;;
3643;SDS011;1838;50.742;7.158;2023-04-24T09:15:02;5.23;;;2.90;;
3643;SDS011;1838;50.742;7.158;2023-04-24T09:17:30;7.77;;;3.60;;
3643;SDS011;1838;50.742;7.158;2023-04-24T09:19:57;3.93;;;3.10;;
3643;SDS011;1838;50.742;7.158;2023-04-24T09:22:22;6.30;;;3.97;;
3643;SDS011;1838;50.742;7.158;2023-04-24T09:24:48;4.47;;;3.27;;
3643;SDS011;1838;50.742;7.158;2023-04-24T09:27:28;4.70;;;3.60;;
3643;SDS011;1838;50.742;7.158;2023-04-24T09:29:57;8.33;;;3.03;;
3643;SDS011;1838;50.742;7.158;2023-04-24T09:32:23;5.10;;;4.00;;
3643;SDS011;1838;50.742;7.158;2023-04-24T09:35:07;6.90;;;4.17;;
3643;SDS011;1838;50.742;7.158;2023-04-24T09:37:35;6.30;;;4.60;;
3643;SDS011;1838;50.742;7.158;2023-04-24T09:40:08;6.10;;;4.87;;
3643;SDS011;1838;50.742;7.158;2023-04-24T09:42:38;12.63;;;3.83;;
3643;SDS011;1838;50.742;7.158;2023-04-24T09:45:08;5.93;;;4.53;;
3643;SDS011;1838;50.742;7.158;2023-04-24T09:47:41;8.10;;;4.40;;
3643;SDS011;1838;50.742;7.158;2023-04-24T09:50:10;5.67;;;4.30;;
3643;SDS011;1838;50.742;7.158;2023-04-24T09:52:43;7.77;;;4.87;;
3643;SDS011;1838;50.742;7.158;2023-04-24T09:55:16;7.70;;;4.20;;
3643;SDS011;1838;50.742;7.158;2023-04-24T09:57:50;6.37;;;4.60;;
3643;SDS011;1838;50.742;7.158;2023-04-24T10:00:18;5.63;;;4.40;;
3643;SDS011;1838;50.742;7.158;2023-04-24T10:02:44;5.23;;;3.70;;
3643;SDS011;1838;50.742;7.158;2023-04-24T10:05:11;6.67;;;4.43;;
3643;SDS011;1838;50.742;7.158;2023-04-24T10:07:37;9.47;;;4.50;;
3643;SDS011;1838;50.742;7.158;2023-04-24T10:10:03;7.30;;;4.80;;
3643;SDS011;1838;50.742;7.158;2023-04-24T10:12:29;6.70;;;3.50;;
3643;SDS011;1838;50.742;7.158;2023-04-24T10:14:55;5.17;;;3.67;;
3643;SDS011;1838;50.742;7.158;2023-04-24T10:17:22;5.57;;;3.80;;
3643;SDS011;1838;50.742;7.158;2023-04-24T10:19:48;7.47;;;4.60;;
3643;SDS011;1838;50.742;7.158;2023-04-24T10:22:14;10.33;;;4.37;;
3643;SDS011;1838;50.742;7.158;2023-04-24T10:24:42;6.70;;;4.10;;
3643;SDS011;1838;50.742;7.158;2023-04-24T10:27:09;6.13;;;4.23;;
3643;SDS011;1838;50.742;7.158;2023-04-24T10:29:34;4.60;;;3.80;;
3643;SDS011;1838;50.742;7.158;2023-04-24T10:32:01;5.17;;;4.27;;
3643;SDS011;1838;50.742;7.158;2023-04-24T10:34:26;5.83;;;4.10;;
3643;SDS011;1838;50.742;7.158;2023-04-24T10:36:52;10.30;;;4.70;;
3643;SDS011;1838;50.742;7.158;2023-04-24T10:39:19;8.10;;;5.17;;
3643;SDS011;1838;50.742;7.158;2023-04-24T10:41:46;8.07;;;4.43;;
3643;SDS011;1838;50.742;7.158;2023-04-24T10:44:14;4.00;;;3.37;;
3643;SDS011;1838;50.742;7.158;2023-04-24T10:46:52;5.63;;;4.43;;
3643;SDS011;1838;50.742;7.158;2023-04-24T10:49:29;6.63;;;4.20;;
3643;SDS011;1838;50.742;7.158;2023-04-24T10:51:59;4.97;;;3.70;;
3643;SDS011;1838;50.742;7.158;2023-04-24T10:59:44;8.77;;;4.77;;
3643;SDS011;1838;50.742;7.158;2023-04-24T11:02:13;6.57;;;4.90;;
3643;SDS011;1838;50.742;7.158;2023-04-24T11:04:40;8.77;;;5.17;;
3643;SDS011;1838;50.742;7.158;2023-04-24T11:07:08;8.07;;;5.00;;
3643;SDS011;1838;50.742;7.158;2023-04-24T11:09:34;6.77;;;4.60;;
3643;SDS011;1838;50.742;7.158;2023-04-24T11:14:54;10.50;;;5.47;;
3643;SDS011;1838;50.742;7.158;2023-04-24T11:17:34;13.27;;;6.50;;
3643;SDS011;1838;50.742;7.158;2023-04-24T11:22:34;13.90;;;7.80;;
3643;SDS011;1838;50.742;7.158;2023-04-24T11:25:01;15.30;;;6.87;;
3643;SDS011;1838;50.742;7.158;2023-04-24T11:27:29;16.57;;;8.00;;
3643;SDS011;1838;50.742;7.158;2023-04-24T11:32:29;18.10;;;7.80;;
3643;SDS011;1838;50.742;7.158;2023-04-24T11:35:01;15.70;;;7.83;;
3643;SDS011;1838;50.742;7.158;2023-04-24T11:37:42;16.27;;;7.40;;
3643;SDS011;1838;50.742;7.158;2023-04-24T11:40:14;19.23;;;7.23;;
3643;SDS011;1838;50.742;7.158;2023-04-24T11:42:41;12.80;;;8.00;;
3643;SDS011;1838;50.742;7.158;2023-04-24T11:45:11;14.43;;;7.07;;
3643;SDS011;1838;50.742;7.158;2023-04-24T11:47:39;11.50;;;6.70;;
3643;SDS011;1838;50.742;7.158;2023-04-24T11:50:05;9.97;;;7.60;;
3643;SDS011;1838;50.742;7.158;2023-04-24T11:52:33;12.17;;;6.10;;
3643;SDS011;1838;50.742;7.158;2023-04-24T11:55:02;10.77;;;5.87;;
3643;SDS011;1838;50.742;7.158;2023-04-24T11:57:28;16.20;;;6.07;;
3643;SDS011;1838;50.742;7.158;2023-04-24T11:59:59;14.90;;;6.20;;
3643;SDS011;1838;50.742;7.158;2023-04-24T12:02:30;9.57;;;6.10;;
3643;SDS011;1838;50.742;7.158;2023-04-24T12:04:56;7.40;;;5.40;;
3643;SDS011;1838;50.742;7.158;2023-04-24T12:07:22;16.27;;;6.70;;
3643;SDS011;1838;50.742;7.158;2023-04-24T12:09:50;19.50;;;5.60;;
3643;SDS011;1838;50.742;7.158;2023-04-24T12:12:24;9.83;;;5.93;;
3643;SDS011;1838;50.742;7.158;2023-04-24T12:14:57;12.30;;;6.40;;
3643;SDS011;1838;50.742;7.158;2023-04-24T12:17:27;13.50;;;6.90;;
3643;SDS011;1838;50.742;7.158;2023-04-24T12:20:01;12.47;;;5.70;;
3643;SDS011;1838;50.742;7.158;2023-04-24T12:22:42;10.77;;;5.67;;
3643;SDS011;1838;50.742;7.158;2023-04-24T12:25:12;10.73;;;7.07;;
3643;SDS011;1838;50.742;7.158;2023-04-24T12:27:40;14.13;;;5.53;;
3643;SDS011;1838;50.742;7.158;2023-04-24T12:30:09;9.13;;;6.30;;
3643;SDS011;1838;50.742;7.158;2023-04-24T12:32:43;9.33;;;5.90;;
3643;SDS011;1838;50.742;7.158;2023-04-24T12:35:11;8.67;;;6.53;;
3643;SDS011;1838;50.742;7.158;2023-04-24T12:37:36;18.37;;;6.97;;
3643;SDS011;1838;50.742;7.158;2023-04-24T12:40:05;13.50;;;7.10;;
3643;SDS011;1838;50.742;7.158;2023-04-24T12:42:32;11.33;;;7.07;;
3643;SDS011;1838;50.742;7.158;2023-04-24T12:45:00;11.90;;;7.70;;
3643;SDS011;1838;50.742;7.158;2023-04-24T12:47:30;10.53;;;7.80;;
3643;SDS011;1838;50.742;7.158;2023-04-24T12:49:56;11.97;;;6.63;;
3643;SDS011;1838;50.742;7.158;2023-04-24T12:52:22;13.57;;;6.13;;
3643;SDS011;1838;50.742;7.158;2023-04-24T12:54:49;10.20;;;5.60;;
3643;SDS011;1838;50.742;7.158;2023-04-24T12:57:15;9.83;;;6.47;;
3643;SDS011;1838;50.742;7.158;2023-04-24T12:59:41;12.70;;;7.73;;
3643;SDS011;1838;50.742;7.158;2023-04-24T13:02:07;12.37;;;6.73;;
3643;SDS011;1838;50.742;7.158;2023-04-24T13:04:34;9.60;;;6.90;;
3643;SDS011;1838;50.742;7.158;2023-04-24T13:06:59;10.97;;;6.83;;
3643;SDS011;1838;50.742;7.158;2023-04-24T13:09:25;7.60;;;6.07;;
3643;SDS011;1838;50.742;7.158;2023-04-24T13:11:50;12.13;;;6.47;;
3643;SDS011;1838;50.742;7.158;2023-04-24T13:14:16;15.60;;;6.50;;
3643;SDS011;1838;50.742;7.158;2023-04-24T13:16:41;11.83;;;6.00;;
3643;SDS011;1838;50.742;7.158;2023-04-24T13:19:07;10.43;;;6.33;;
3643;SDS011;1838;50.742;7.158;2023-04-24T13:21:33;9.07;;;6.30;;
3643;SDS011;1838;50.742;7.158;2023-04-24T13:23:58;17.20;;;5.90;;
3643;SDS011;1838;50.742;7.158;2023-04-24T13:26:24;8.33;;;5.90;;
3643;SDS011;1838;50.742;7.158;2023-04-24T13:28:50;7.23;;;4.53;;
3643;SDS011;1838;50.742;7.158;2023-04-24T13:31:15;10.30;;;5.57;;
3643;SDS011;1838;50.742;7.158;2023-04-24T13:33:41;7.20;;;4.97;;
3643;SDS011;1838;50.742;7.158;2023-04-24T13:36:07;8.87;;;5.20;;
3643;SDS011;1838;50.742;7.158;2023-04-24T13:38:34;8.53;;;4.40;;
3643;SDS011;1838;50.742;7.158;2023-04-24T13:40:59;8.30;;;5.67;;
3643;SDS011;1838;50.742;7.158;2023-04-24T13:43:25;9.07;;;5.30;;
3643;SDS011;1838;50.742;7.158;2023-04-24T13:45:51;11.57;;;5.60;;
3643;SDS011;1838;50.742;7.158;2023-04-24T13:48:16;14.50;;;5.17;;
3643;SDS011;1838;50.742;7.158;2023-04-24T13:50:42;12.23;;;6.00;;
3643;SDS011;1838;50.742;7.158;2023-04-24T13:53:09;8.67;;;4.80;;
3643;SDS011;1838;50.742;7.158;2023-04-24T13:55:35;10.27;;;5.00;;
3643;SDS011;1838;50.742;7.158;2023-04-24T13:58:01;13.63;;;5.63;;
3643;SDS011;1838;50.742;7.158;2023-04-24T14:00:27;9.33;;;6.23;;
3643;SDS011;1838;50.742;7.158;2023-04-24T14:02:53;15.00;;;6.40;;
3643;SDS011;1838;50.742;7.158;2023-04-24T14:05:18;12.93;;;6.57;;
3643;SDS011;1838;50.742;7.158;2023-04-24T14:07:44;13.57;;;6.20;;
3643;SDS011;1838;50.742;7.158;2023-04-24T14:10:09;7.67;;;5.30;;
3643;SDS011;1838;50.742;7.158;2023-04-24T14:12:35;10.60;;;6.20;;
3643;SDS011;1838;50.742;7.158;2023-04-24T14:15:01;12.37;;;6.60;;
3643;SDS011;1838;50.742;7.158;2023-04-24T14:17:27;14.20;;;6.93;;
3643;SDS011;1838;50.742;7.158;2023-04-24T14:19:52;13.23;;;7.20;;
3643;SDS011;1838;50.742;7.158;2023-04-24T14:22:21;18.60;;;7.93;;
3643;SDS011;1838;50.742;7.158;2023-04-24T14:24:46;13.97;;;7.73;;
3643;SDS011;1838;50.742;7.158;2023-04-24T14:27:12;13.43;;;6.93;;
3643;SDS011;1838;50.742;7.158;2023-04-24T14:29:37;11.90;;;7.03;;
3643;SDS011;1838;50.742;7.158;2023-04-24T14:32:03;14.13;;;6.20;;
3643;SDS011;1838;50.742;7.158;2023-04-24T14:34:28;20.73;;;8.13;;
3643;SDS011;1838;50.742;7.158;2023-04-24T14:36:54;7.00;;;6.30;;
3643;SDS011;1838;50.742;7.158;2023-04-24T14:39:19;8.70;;;6.73;;
3643;SDS011;1838;50.742;7.158;2023-04-24T14:41:45;16.33;;;7.07;;
3643;SDS011;1838;50.742;7.158;2023-04-24T14:44:11;9.67;;;6.33;;
3643;SDS011;1838;50.742;7.158;2023-04-24T14:46:36;13.13;;;6.00;;
3643;SDS011;1838;50.742;7.158;2023-04-24T14:49:02;10.67;;;6.50;;
3643;SDS011;1838;50.742;7.158;2023-04-24T14:51:27;10.20;;;6.87;;
3643;SDS011;1838;50.742;7.158;2023-04-24T14:53:53;10.13;;;5.80;;
3643;SDS011;1838;50.742;7.158;2023-04-24T14:56:18;11.30;;;7.00;;
3643;SDS011;1838;50.742;7.158;2023-04-24T14:58:44;12.80;;;6.37;;
3643;SDS011;1838;50.742;7.158;2023-04-24T15:01:10;13.33;;;6.10;;
3643;SDS011;1838;50.742;7.158;2023-04-24T15:03:35;10.70;;;5.50;;
3643;SDS011;1838;50.742;7.158;2023-04-24T15:06:01;8.20;;;5.63;;
3643;SDS011;1838;50.742;7.158;2023-04-24T15:08:27;15.17;;;6.50;;
3643;SDS011;1838;50.742;7.158;2023-04-24T15:10:52;10.20;;;6.00;;
3643;SDS011;1838;50.742;7.158;2023-04-24T15:13:18;19.30;;;6.93;;
3643;SDS011;1838;50.742;7.158;2023-04-24T15:15:45;11.10;;;6.10;;
3643;SDS011;1838;50.742;7.158;2023-04-24T15:18:12;15.57;;;6.60;;
3643;SDS011;1838;50.742;7.158;2023-04-24T15:20:37;11.13;;;5.37;;
3643;SDS011;1838;50.742;7.158;2023-04-24T15:23:07;13.43;;;6.30;;
3643;SDS011;1838;50.742;7.158;2023-04-24T15:25:34;10.20;;;6.63;;
3643;SDS011;1838;50.742;7.158;2023-04-24T15:27:59;13.13;;;5.80;;
3643;SDS011;1838;50.742;7.158;2023-04-24T15:30:25;14.57;;;6.27;;
3643;SDS011;1838;50.742;7.158;2023-04-24T15:32:51;9.37;;;5.03;;
3643;SDS011;1838;50.742;7.158;2023-04-24T15:35:17;8.50;;;5.33;;
3643;SDS011;1838;50.742;7.158;2023-04-24T15:37:43;7.93;;;5.10;;
3643;SDS011;1838;50.742;7.158;2023-04-24T15:40:09;8.77;;;4.57;;
3643;SDS011;1838;50.742;7.158;2023-04-24T15:42:38;12.80;;;5.20;;
3643;SDS011;1838;50.742;7.158;2023-04-24T15:45:03;7.70;;;4.70;;
3643;SDS011;1838;50.742;7.158;2023-04-24T15:47:29;11.17;;;5.70;;
3643;SDS011;1838;50.742;7.158;2023-04-24T15:49:55;6.20;;;4.73;;
3643;SDS011;1838;50.742;7.158;2023-04-24T15:52:22;8.90;;;5.50;;